Time;durP1;ratioP1;P1;durP2;ratioP2;P2;SDS_P1;SDS_P2;PMS_P1;PMS_P2;Temp;Humidity;BMP_temperature;BMP_pressure;BME280_temperature;BME280_humidity;BME280_pressure;Samples;Min_cycle;Max_cycle;Signal;HPM_P1;HPM_P2
2024/03/26 00:02:33;;;;;;;;;;;;;;;1.94;85.90;99430.73;110112;1278;22519;31
2024/03/26 00:06:09;;;;;;;;;;;;;;;1.90;85.74;99431.29;110128;1278;24410;31
2024/03/26 00:09:49;;;;;;;;;;;;;;;1.84;85.70;99432.78;110073;1278;22769;31
2024/03/26 00:13:26;;;;;;;;;;;;;;;1.79;85.66;99433.56;109944;1279;24034;31
2024/03/26 00:20:53;;;;;;;;;;;;;;;1.67;85.75;99432.73;110087;1270;24177;31
2024/03/26 00:24:31;;;;;;;;;;;;;;;1.65;85.93;99437.38;110167;1276;22767;31
2024/03/26 00:27:56;;;;;;;;;;;;;;;1.62;85.95;99439.65;110090;1277;23680;31
2024/03/26 00:31:34;;;;;;;;;;;;;;;1.61;86.07;99444.58;110078;1278;23811;31
2024/03/26 00:38:59;;;;;;;;;;;;;;;1.54;86.04;99439.34;110086;1278;23899;31
2024/03/26 00:42:38;;;;;;;;;;;;;;;1.52;86.19;99439.39;110103;1276;22358;31
2024/03/26 00:46:15;;;;;;;;;;;;;;;1.52;86.27;99441.13;110059;1278;24338;31
2024/03/26 00:50:02;;;;;;;;;;;;;;;1.51;86.26;99434.53;110146;1277;24633;31
2024/03/26 00:53:39;;;;;;;;;;;;;;;1.49;86.27;99429.66;110134;1276;24461;31
2024/03/26 01:51:59;;;;;;;;;;;;;;;0.90;86.90;99421.92;109972;1270;22657;31
2024/03/26 02:06:22;;;;;;;;;;;;;;;0.75;86.75;99417.83;109513;1272;24386;31
2024/03/26 02:09:58;;;;;;;;;;;;;;;0.72;86.84;99414.67;109586;1285;22378;31
2024/03/26 02:20:49;;;;;;;;;;;;;;;0.65;86.95;99404.11;109449;1287;24007;31
2024/03/26 02:24:26;;;;;;;;;;;;;;;0.64;87.07;99401.41;109563;1286;23943;31
2024/03/26 02:28:04;;;;;;;;;;;;;;;0.64;87.19;99391.74;109578;1284;24037;31
2024/03/26 02:31:41;;;;;;;;;;;;;;;0.61;87.37;99389.23;109590;1285;22672;31
2024/03/26 02:35:18;;;;;;;;;;;;;;;0.58;87.65;99390.64;109558;1285;24016;31
2024/03/26 02:38:54;;;;;;;;;;;;;;;0.56;87.87;99384.42;109444;1287;22504;-89
2024/03/26 02:42:33;;;;;;;;;;;;;;;0.57;88.00;99383.55;109591;1286;22474;31
2024/03/26 02:46:15;;;;;;;;;;;;;;;0.54;87.99;99388.94;93333;1286;22508;-89
2024/03/26 02:53:46;;;;;;;;;;;;;;;0.51;87.82;99388.39;109563;1284;24001;31
2024/03/26 02:57:23;;;;;;;;;;;;;;;0.50;87.69;99380.66;109457;1287;22494;31
2024/03/26 03:01:02;;;;;;;;;;;;;;;0.48;87.75;99384.48;109608;1285;22486;31
2024/03/26 03:04:19;;;;;;;;;;;;;;;0.46;87.67;99378.42;109571;1286;23783;31
2024/03/26 03:07:58;;;;;;;;;;;;;;;0.42;87.72;99379.39;109591;1284;22495;31
2024/03/26 03:11:23;;;;;;;;;;;;;;;0.40;87.74;99379.92;109544;1285;22463;31
2024/03/26 03:15:00;;;;;;;;;;;;;;;0.39;87.72;99373.90;109581;1285;22485;31
2024/03/26 03:18:36;;;;;;;;;;;;;;;0.38;87.57;99379.09;109570;1285;22762;31
2024/03/26 03:22:35;;;;;;;;;;;;;;;0.37;87.41;99375.35;109502;1286;24786;31
2024/03/26 03:26:11;;;;;;;;;;;;;;;0.36;87.37;99364.08;108960;1285;22495;-89
2024/03/26 03:29:35;;;;;;;;;;;;;;;0.33;87.48;99364.70;109907;1273;23062;31
2024/03/26 03:33:03;;;;;;;;;;;;;;;0.32;87.37;99362.31;109424;1288;22599;31
2024/03/26 03:36:21;;;;;;;;;;;;;;;0.30;87.43;99365.35;109517;1286;22493;31
2024/03/26 03:39:48;;;;;;;;;;;;;;;0.25;87.23;99360.77;109710;1274;23637;31
2024/03/26 03:43:16;;;;;;;;;;;;;;;0.17;87.10;99364.27;109596;1285;22432;31
2024/03/26 03:46:43;;;;;;;;;;;;;;;0.09;86.94;99358.95;109600;1274;22519;31
2024/03/26 03:49:52;;;;;;;;;;;;;;;0.02;87.05;99367.94;109860;1269;22522;31
2024/03/26 03:53:10;;;;;;;;;;;;;;;-0.06;86.97;99368.34;109701;1271;22522;-87
2024/03/26 03:56:47;;;;;;;;;;;;;;;-0.11;87.20;99367.52;109637;1286;22612;-86
2024/03/26 04:03:42;;;;;;;;;;;;;;;-0.14;87.32;99369.86;109821;1286;22505;-88
2024/03/26 04:10:53;;;;;;;;;;;;;;;-0.15;87.19;99374.12;109788;1293;22515;-89
2024/03/26 04:14:12;;;;;;;;;;;;;;;-0.15;87.22;99368.80;109924;1292;22430;-89
